Time;durP1;ratioP1;P1;durP2;ratioP2;P2;SDS_P1;SDS_P2;PMS_P1;PMS_P2;Temp;Humidity;BMP_temperature;BMP_pressure;BME280_temperature;BME280_humidity;BME280_pressure;Samples;Min_cycle;Max_cycle;Signal;HPM_P1;HPM_P2
2021/01/27 00:00:54;;;;;;;48.10;33.35;;;;;;;;;;4993690;28;20547;-63
2021/01/27 00:03:40;;;;;;;43.38;32.20;;;;;;;;;;4988497;28;20559;-63
2021/01/27 00:06:30;;;;;;;42.13;34.03;;;;;;;;;;4988116;28;20046;-63
2021/01/27 00:09:15;;;;;;;46.70;33.45;;;;;;;;;;4992886;28;20068;-66
2021/01/27 00:12:00;;;;;;;43.58;33.05;;;;;;;;;;4994593;28;20050;-67
2021/01/27 00:14:46;;;;;;;48.00;34.38;;;;;;;;;;4994311;28;20508;-66
2021/01/27 00:17:31;;;;;;;44.38;32.45;;;;;;;;;;4991063;28;20046;-66
2021/01/27 00:20:17;;;;;;;44.78;33.97;;;;;;;;;;4987293;28;20507;-66
2021/01/27 00:23:02;;;;;;;45.90;33.47;;;;;;;;;;4994391;28;20073;-66
2021/01/27 00:25:48;;;;;;;43.58;33.17;;;;;;;;;;4978363;28;20058;-66
2021/01/27 00:28:33;;;;;;;48.47;34.53;;;;;;;;;;4994272;28;20086;-66
2021/01/27 00:31:19;;;;;;;43.63;32.75;;;;;;;;;;4994249;28;20439;-66
2021/01/27 00:34:04;;;;;;;45.83;34.38;;;;;;;;;;4991454;28;20034;-66
2021/01/27 00:36:50;;;;;;;44.85;34.22;;;;;;;;;;4994212;28;20134;-66
2021/01/27 00:39:35;;;;;;;50.97;34.58;;;;;;;;;;4993171;28;20046;-66
2021/01/27 00:42:21;;;;;;;50.00;34.80;;;;;;;;;;4983749;28;20050;-67
2021/01/27 00:45:06;;;;;;;52.85;36.35;;;;;;;;;;4974653;28;20054;-66
2021/01/27 00:47:51;;;;;;;46.58;36.47;;;;;;;;;;4974673;28;20051;-67
2021/01/27 00:50:37;;;;;;;48.40;36.53;;;;;;;;;;4993774;28;20046;-67
2021/01/27 00:53:22;;;;;;;47.15;37.97;;;;;;;;;;4993928;28;20064;-67
2021/01/27 00:56:08;;;;;;;50.30;37.08;;;;;;;;;;4992207;28;20048;-67
2021/01/27 00:58:53;;;;;;;46.00;36.70;;;;;;;;;;4993796;28;20125;-67
2021/01/27 01:01:49;;;;;;;48.40;36.53;;;;;;;;;;4992744;28;20077;-67
2021/01/27 01:04:51;;;;;;;56.35;37.63;;;;;;;;;;4992884;28;20046;-67
2021/01/27 01:07:36;;;;;;;48.92;36.67;;;;;;;;;;4993292;28;20042;-67
2021/01/27 01:10:28;;;;;;;48.25;36.15;;;;;;;;;;4992154;28;20050;-67
2021/01/27 01:13:15;;;;;;;43.53;36.90;;;;;;;;;;4993537;28;20050;-67
2021/01/27 01:16:00;;;;;;;47.83;37.15;;;;;;;;;;4985828;28;20043;-67
2021/01/27 01:18:45;;;;;;;50.15;35.75;;;;;;;;;;4986911;28;20043;-67
2021/01/27 01:21:30;;;;;;;49.35;36.90;;;;;;;;;;4974938;28;20121;-67
2021/01/27 01:24:17;;;;;;;42.72;33.70;;;;;;;;;;4993229;28;20124;-67
2021/01/27 01:27:02;;;;;;;46.78;34.38;;;;;;;;;;4989268;28;20050;-67
2021/01/27 01:29:48;;;;;;;42.20;33.35;;;;;;;;;;4973929;28;20105;-66
2021/01/27 01:32:33;;;;;;;43.15;35.42;;;;;;;;;;4979412;28;20512;-67
2021/01/27 01:35:19;;;;;;;40.83;33.70;;;;;;;;;;4993237;28;20492;-67
2021/01/27 01:38:04;;;;;;;39.17;31.10;;;;;;;;;;4982763;28;20039;-67
2021/01/27 01:40:59;;;;;;;39.88;28.95;;;;;;;;;;4992939;28;20050;-67
2021/01/27 01:43:45;;;;;;;34.80;28.33;;;;;;;;;;4993077;28;20500;-67
2021/01/27 01:46:30;;;;;;;33.97;28.88;;;;;;;;;;4991434;28;20050;-67
2021/01/27 01:49:15;;;;;;;32.17;26.67;;;;;;;;;;4992557;28;20050;-67
2021/01/27 01:52:01;;;;;;;27.13;24.20;;;;;;;;;;4991896;28;20050;-67
2021/01/27 01:54:53;;;;;;;30.00;24.23;;;;;;;;;;4986151;28;20047;-67
2021/01/27 01:57:39;;;;;;;29.85;26.00;;;;;;;;;;4985874;28;20057;-66
2021/01/27 02:00:24;;;;;;;28.35;23.85;;;;;;;;;;4986617;28;20395;-65
2021/01/27 02:03:11;;;;;;;27.90;23.48;;;;;;;;;;4991842;28;20412;-65
2021/01/27 02:05:57;;;;;;;24.08;20.98;;;;;;;;;;4990271;28;20046;-66
2021/01/27 02:08:46;;;;;;;24.75;21.30;;;;;;;;;;4992684;28;20043;-65
2021/01/27 02:11:38;;;;;;;24.02;18.25;;;;;;;;;;4992688;28;20057;-66
2021/01/27 02:14:37;;;;;;;19.05;16.83;;;;;;;;;;4979901;28;20077;-65
2021/01/27 02:17:31;;;;;;;20.13;17.88;;;;;;;;;;4985784;28;20047;-66
2021/01/27 02:20:36;;;;;;;18.05;15.95;;;;;;;;;;4986884;28;20054;-66
2021/01/27 02:23:21;;;;;;;18.75;15.93;;;;;;;;;;4986469;28;20141;-65
2021/01/27 02:26:25;;;;;;;19.10;15.63;;;;;;;;;;4983643;28;20039;-65
2021/01/27 02:29:18;;;;;;;19.70;15.98;;;;;;;;;;4974811;28;20532;-65
2021/01/27 02:32:03;;;;;;;;;;;;;;;;;;4992957;28;20492;-66
2021/01/27 02:34:48;;;;;;;16.80;14.63;;;;;;;;;;4991795;28;19925;-66
2021/01/27 02:37:42;;;;;;;20.92;16.40;;;;;;;;;;4992374;28;20047;-66
2021/01/27 02:41:00;;;;;;;18.10;15.43;;;;;;;;;;4989620;28;20073;-66
2021/01/27 02:43:49;;;;;;;21.30;15.55;;;;;;;;;;4975549;28;20066;-66
2021/01/27 02:46:40;;;;;;;21.50;15.68;;;;;;;;;;4982238;28;20054;-66
2021/01/27 02:49:28;;;;;;;18.88;15.82;;;;;;;;;;4972924;28;20054;-66
2021/01/27 02:52:14;;;;;;;17.45;14.35;;;;;;;;;;4986119;28;20043;-65
2021/01/27 02:54:59;;;;;;;18.20;14.88;;;;;;;;;;4985590;28;20489;-66
2021/01/27 02:57:49;;;;;;;17.65;14.32;;;;;;;;;;4986505;28;20408;-65
2021/01/27 03:00:39;;;;;;;16.23;13.50;;;;;;;;;;4973546;28;20058;-66
2021/01/27 03:03:26;;;;;;;18.98;15.27;;;;;;;;;;4976601;28;20075;-66
2021/01/27 03:06:12;;;;;;;16.75;13.88;;;;;;;;;;4991643;28;20381;-66
2021/01/27 03:08:58;;;;;;;15.02;13.43;;;;;;;;;;4995914;28;20065;-66
2021/01/27 03:11:43;;;;;;;17.98;13.02;;;;;;;;;;4994770;28;20053;-66
2021/01/27 03:14:28;;;;;;;16.10;12.35;;;;;;;;;;4977050;28;20054;-66
2021/01/27 03:17:13;;;;;;;18.00;13.63;;;;;;;;;;4988731;28;20085;-66
2021/01/27 03:20:00;;;;;;;16.08;12.52;;;;;;;;;;4989164;28;20319;-66
2021/01/27 03:22:47;;;;;;;20.15;13.50;;;;;;;;;;4974980;28;20556;-66
2021/01/27 03:25:33;;;;;;;15.75;12.95;;;;;;;;;;4987694;28;20484;-66
2021/01/27 03:28:26;;;;;;;18.77;14.38;;;;;;;;;;4975460;28;20489;-66
2021/01/27 03:31:11;;;;;;;14.48;11.70;;;;;;;;;;4988393;28;20051;-66
2021/01/27 03:33:59;;;;;;;17.67;11.93;;;;;;;;;;4990433;28;20054;-66
2021/01/27 03:36:49;;;;;;;15.27;12.32;;;;;;;;;;4990963;28;20043;-66
2021/01/27 03:39:35;;;;;;;16.10;11.98;;;;;;;;;;5001677;28;20057;-66
2021/01/27 03:42:22;;;;;;;14.15;10.57;;;;;;;;;;4995293;28;20050;-66
2021/01/27 03:45:08;;;;;;;13.02;10.27;;;;;;;;;;4994242;28;20050;-66
2021/01/27 03:47:55;;;;;;;14.50;10.77;;;;;;;;;;4994073;28;20062;-65
2021/01/27 03:50:41;;;;;;;15.75;11.38;;;;;;;;;;4982566;28;20042;-65
2021/01/27 03:53:26;;;;;;;14.90;10.02;;;;;;;;;;5005285;28;20488;-66
2021/01/27 03:56:16;;;;;;;13.68;10.05;;;;;;;;;;4975413;28;20047;-66
2021/01/27 03:59:02;;;;;;;15.77;10.15;;;;;;;;;;4989102;28;20043;-66
2021/01/27 04:01:48;;;;;;;15.80;9.32;;;;;;;;;;4994058;28;20073;-66
2021/01/27 04:04:33;;;;;;;13.32;9.50;;;;;;;;;;4994788;28;20407;-66
2021/01/27 04:07:19;;;;;;;13.15;9.45;;;;;;;;;;4994221;28;20045;-66
2021/01/27 04:10:04;;;;;;;13.38;9.23;;;;;;;;;;4994854;28;20488;-66
2021/01/27 04:12:50;;;;;;;13.32;9.32;;;;;;;;;;4993048;28;20116;-65
2021/01/27 04:15:35;;;;;;;12.75;9.50;;;;;;;;;;4993292;28;20050;-65
2021/01/27 04:18:20;;;;;;;13.60;8.82;;;;;;;;;;4994470;28;20416;-66
2021/01/27 04:21:06;;;;;;;10.95;8.48;;;;;;;;;;4994319;28;20141;-66
2021/01/27 04:23:51;;;;;;;12.27;8.30;;;;;;;;;;4994518;28;20046;-66
2021/01/27 04:26:37;;;;;;;11.60;8.77;;;;;;;;;;4994283;28;20046;-66
2021/01/27 04:29:22;;;;;;;11.65;9.15;;;;;;;;;;4985048;28;20058;-66
2021/01/27 04:32:08;;;;;;;14.07;9.07;;;;;;;;;;4974845;28;20043;-66
2021/01/27 04:34:53;;;;;;;14.82;9.05;;;;;;;;;;4975087;28;20130;-66
2021/01/27 04:37:38;;;;;;;11.70;8.43;;;;;;;;;;4975982;28;20278;-67
2021/01/27 04:40:25;;;;;;;12.27;9.18;;;;;;;;;;4975927;28;20050;-67
2021/01/27 04:43:16;;;;;;;11.60;9.95;;;;;;;;;;4974702;28;20492;-66
2021/01/27 04:46:05;;;;;;;12.70;10.15;;;;;;;;;;4973472;28;20042;-66
2021/01/27 04:48:53;;;;;;;11.20;10.00;;;;;;;;;;4985841;28;20521;-66
2021/01/27 04:51:42;;;;;;;13.73;10.80;;;;;;;;;;4992238;28;20073;-67
2021/01/27 04:54:37;;;;;;;13.07;10.50;;;;;;;;;;4992850;28;20046;-66
2021/01/27 04:57:31;;;;;;;11.45;9.98;;;;;;;;;;4992741;28;20132;-66
2021/01/27 05:00:29;;;;;;;15.85;10.80;;;;;;;;;;4992215;28;20412;-67
2021/01/27 05:03:17;;;;;;;13.25;11.60;;;;;;;;;;4991139;28;20042;-66
2021/01/27 05:06:03;;;;;;;12.73;11.43;;;;;;;;;;4991981;28;20039;-67
2021/01/27 05:08:54;;;;;;;13.52;10.52;;;;;;;;;;4992623;28;20496;-67
2021/01/27 05:11:40;;;;;;;13.52;10.15;;;;;;;;;;4993741;28;20046;-67
2021/01/27 05:14:25;;;;;;;10.10;9.07;;;;;;;;;;4991253;28;20046;-67
2021/01/27 05:17:10;;;;;;;9.65;8.70;;;;;;;;;;4991180;28;20042;-67
2021/01/27 05:19:56;;;;;;;10.50;9.40;;;;;;;;;;4975251;28;20092;-67
2021/01/27 05:22:41;;;;;;;10.88;9.30;;;;;;;;;;4974122;28;20528;-67
2021/01/27 05:25:34;;;;;;;11.23;9.43;;;;;;;;;;4973726;28;20038;-67
2021/01/27 05:28:22;;;;;;;13.77;10.85;;;;;;;;;;4972862;28;20521;-67
2021/01/27 05:31:07;;;;;;;12.88;11.48;;;;;;;;;;5000166;28;20046;-67
2021/01/27 05:33:53;;;;;;;15.38;11.18;;;;;;;;;;4993211;28;20485;-66
2021/01/27 05:36:38;;;;;;;11.52;10.32;;;;;;;;;;4993386;28;20050;-66
2021/01/27 05:39:27;;;;;;;12.70;10.52;;;;;;;;;;4978307;28;20046;-66
2021/01/27 05:42:23;;;;;;;12.95;11.35;;;;;;;;;;4985887;28;20047;-66
2021/01/27 05:45:27;;;;;;;12.20;10.90;;;;;;;;;;4978256;28;20049;-65
2021/01/27 05:48:13;;;;;;;11.10;9.93;;;;;;;;;;4979198;28;20098;-66
2021/01/27 05:51:04;;;;;;;16.15;11.05;;;;;;;;;;4981160;28;20078;-66
2021/01/27 05:53:49;;;;;;;10.98;9.13;;;;;;;;;;4973662;28;20055;-66
2021/01/27 05:56:34;;;;;;;11.05;9.95;;;;;;;;;;4978877;28;20046;-66
2021/01/27 05:59:23;;;;;;;10.90;9.80;;;;;;;;;;4992061;28;20050;-66
2021/01/27 06:02:09;;;;;;;9.63;8.60;;;;;;;;;;4990669;28;20488;-66
2021/01/27 06:04:56;;;;;;;10.35;9.18;;;;;;;;;;4992896;28;20042;-67
2021/01/27 06:07:41;;;;;;;10.48;8.38;;;;;;;;;;5036539;23;20046;-63
2021/01/27 06:10:31;;;;;;;10.38;9.30;;;;;;;;;;5025007;28;20042;-63
2021/01/27 06:13:18;;;;;;;15.07;11.32;;;;;;;;;;5012253;28;20488;-64
2021/01/27 06:16:04;;;;;;;10.48;9.48;;;;;;;;;;5012297;28;20046;-64
2021/01/27 06:18:50;;;;;;;9.95;9.05;;;;;;;;;;5011177;28;20493;-64
2021/01/27 06:21:35;;;;;;;11.20;9.55;;;;;;;;;;4992385;28;20053;-64
2021/01/27 06:24:29;;;;;;;12.65;10.20;;;;;;;;;;4992773;28;20050;-64
2021/01/27 06:27:14;;;;;;;11.55;10.23;;;;;;;;;;4992440;28;20047;-64
2021/01/27 06:29:59;;;;;;;14.05;11.05;;;;;;;;;;4982048;28;20034;-63
2021/01/27 06:33:03;;;;;;;11.90;10.27;;;;;;;;;;5012131;28;20042;-63
2021/01/27 06:35:54;;;;;;;14.30;11.05;;;;;;;;;;5013738;28;20365;-64
2021/01/27 06:38:42;;;;;;;13.52;12.13;;;;;;;;;;5008834;28;20042;-64
2021/01/27 06:41:27;;;;;;;14.45;12.85;;;;;;;;;;4996275;28;20050;-64
2021/01/27 06:44:15;;;;;;;18.85;14.32;;;;;;;;;;4996436;28;20505;-64
2021/01/27 06:47:07;;;;;;;20.17;15.07;;;;;;;;;;4996035;28;20492;-64
2021/01/27 06:49:57;;;;;;;21.33;15.45;;;;;;;;;;4996319;28;20050;-64
2021/01/27 06:52:46;;;;;;;21.83;14.82;;;;;;;;;;4995079;28;20439;-64
2021/01/27 06:55:44;;;;;;;21.35;15.95;;;;;;;;;;4996202;28;20078;-64
2021/01/27 06:58:47;;;;;;;28.35;17.95;;;;;;;;;;4996094;28;20113;-64
2021/01/27 07:01:33;;;;;;;26.55;17.63;;;;;;;;;;4996263;28;20525;-64
2021/01/27 07:04:37;;;;;;;23.73;17.60;;;;;;;;;;4995971;28;20121;-64
2021/01/27 07:07:41;;;;;;;24.85;17.77;;;;;;;;;;4994650;28;20050;-64
2021/01/27 07:10:45;;;;;;;32.30;21.08;;;;;;;;;;4996936;28;20042;-64
2021/01/27 07:13:33;;;;;;;27.90;19.73;;;;;;;;;;5004838;28;20046;-64
2021/01/27 07:16:31;;;;;;;34.78;20.42;;;;;;;;;;5003737;28;20484;-64
2021/01/27 07:19:21;;;;;;;29.83;20.30;;;;;;;;;;4996952;28;20051;-64
2021/01/27 07:22:09;;;;;;;34.20;21.23;;;;;;;;;;4975121;28;20054;-64
2021/01/27 07:25:03;;;;;;;28.88;20.02;;;;;;;;;;4976018;28;20053;-64
2021/01/27 07:27:50;;;;;;;33.47;20.05;;;;;;;;;;4975878;28;20155;-64
2021/01/27 07:30:39;;;;;;;32.83;20.23;;;;;;;;;;4988381;28;20050;-64
2021/01/27 07:33:28;;;;;;;33.00;19.67;;;;;;;;;;5027905;28;20045;-64
2021/01/27 07:36:13;;;;;;;30.45;20.48;;;;;;;;;;5027662;28;20500;-63
2021/01/27 07:38:58;;;;;;;33.33;19.38;;;;;;;;;;5014908;28;20045;-64
2021/01/27 07:41:47;;;;;;;35.72;22.00;;;;;;;;;;5014550;28;20468;-63
2021/01/27 07:44:32;;;;;;;29.50;19.40;;;;;;;;;;4994301;28;20038;-64
2021/01/27 07:47:36;;;;;;;30.88;21.27;;;;;;;;;;4993081;28;20050;-64
2021/01/27 07:50:23;;;;;;;32.47;20.00;;;;;;;;;;4995377;28;20492;-64
2021/01/27 07:53:27;;;;;;;31.08;22.15;;;;;;;;;;4975718;28;20126;-64
2021/01/27 07:56:26;;;;;;;31.02;20.50;;;;;;;;;;4975565;28;20039;-63
2021/01/27 07:59:20;;;;;;;29.50;20.85;;;;;;;;;;4988207;28;20050;-63
2021/01/27 08:02:07;;;;;;;34.40;21.48;;;;;;;;;;5002623;28;20054;-63
2021/01/27 08:04:55;;;;;;;31.63;20.63;;;;;;;;;;4974856;28;20054;-66
2021/01/27 08:07:41;;;;;;;39.22;21.23;;;;;;;;;;4974266;28;20243;-66
2021/01/27 08:10:28;;;;;;;30.15;21.45;;;;;;;;;;4978487;28;20079;-65
2021/01/27 08:13:28;;;;;;;32.80;20.33;;;;;;;;;;5027176;28;20173;-66
2021/01/27 08:16:16;;;;;;;27.23;19.13;;;;;;;;;;5014367;28;20045;-65
2021/01/27 08:19:14;;;;;;;28.95;20.42;;;;;;;;;;5014377;28;20053;-65
2021/01/27 08:21:59;;;;;;;28.15;19.27;;;;;;;;;;5010744;28;20476;-64
2021/01/27 08:24:46;;;;;;;24.15;18.20;;;;;;;;;;5014140;28;20080;-64
2021/01/27 08:27:32;;;;;;;27.95;17.05;;;;;;;;;;5013911;28;20503;-65
2021/01/27 08:30:20;;;;;;;24.48;17.95;;;;;;;;;;5003666;28;20484;-65
2021/01/27 08:33:25;;;;;;;24.23;18.23;;;;;;;;;;4994384;28;20047;-64
2021/01/27 08:36:19;;;;;;;22.08;17.48;;;;;;;;;;4994407;28;20051;-64
2021/01/27 08:39:11;;;;;;;19.15;15.52;;;;;;;;;;4994454;28;20129;-64
2021/01/27 08:42:01;;;;;;;20.77;16.15;;;;;;;;;;4993229;28;20129;-64
2021/01/27 08:44:46;;;;;;;18.88;15.48;;;;;;;;;;4992889;28;20445;-64
2021/01/27 08:47:37;;;;;;;20.55;15.80;;;;;;;;;;4993181;28;20042;-64
2021/01/27 08:50:42;;;;;;;17.92;15.27;;;;;;;;;;4993191;28;20046;-63
2021/01/27 08:53:29;;;;;;;18.92;14.73;;;;;;;;;;4994031;28;20042;-64
2021/01/27 08:56:13;;;;;;;17.45;14.95;;;;;;;;;;4993777;28;20046;-63
2021/01/27 08:59:17;;;;;;;18.83;15.57;;;;;;;;;;4993777;28;20517;-64
2021/01/27 09:02:03;;;;;;;18.00;14.80;;;;;;;;;;4994866;28;20141;-64
2021/01/27 09:04:48;;;;;;;18.23;14.15;;;;;;;;;;4992980;28;20057;-64
2021/01/27 09:07:34;;;;;;;19.60;15.10;;;;;;;;;;4992522;28;20288;-64
2021/01/27 09:10:19;;;;;;;17.63;14.35;;;;;;;;;;4993918;28;20068;-64
2021/01/27 09:13:23;;;;;;;19.70;15.80;;;;;;;;;;4974305;28;20074;-64
2021/01/27 09:16:09;;;;;;;17.50;14.23;;;;;;;;;;4974018;28;20125;-64
2021/01/27 09:18:58;;;;;;;18.77;15.82;;;;;;;;;;4974241;28;20054;-63
2021/01/27 09:21:43;;;;;;;18.13;14.07;;;;;;;;;;4983050;28;20065;-64
2021/01/27 09:24:39;;;;;;;17.30;15.05;;;;;;;;;;4992750;28;20058;-63
2021/01/27 09:27:25;;;;;;;17.02;13.95;;;;;;;;;;4994795;28;20141;-63
2021/01/27 09:30:12;;;;;;;18.48;14.63;;;;;;;;;;4993500;28;20054;-64
2021/01/27 09:33:09;;;;;;;15.57;13.93;;;;;;;;;;5007162;28;20096;-65
2021/01/27 09:36:02;;;;;;;15.10;13.52;;;;;;;;;;5012665;28;20053;-64
2021/01/27 09:38:50;;;;;;;15.77;13.18;;;;;;;;;;5025660;28;20136;-64
2021/01/27 09:41:36;;;;;;;16.52;13.82;;;;;;;;;;5012688;28;20046;-64
2021/01/27 09:44:23;;;;;;;14.20;12.57;;;;;;;;;;4998348;28;20054;-65
2021/01/27 09:47:10;;;;;;;15.90;13.27;;;;;;;;;;4999613;28;20438;-64
2021/01/27 09:49:59;;;;;;;14.70;13.15;;;;;;;;;;4988458;28;20050;-65
2021/01/27 09:52:44;;;;;;;13.90;12.50;;;;;;;;;;4997374;28;20096;-65
2021/01/27 09:55:30;;;;;;;15.25;13.00;;;;;;;;;;5025322;28;20042;-64
2021/01/27 09:58:15;;;;;;;14.00;12.50;;;;;;;;;;4999559;28;20327;-65
2021/01/27 10:01:01;;;;;;;14.57;12.70;;;;;;;;;;4993198;28;20081;-64
2021/01/27 10:03:47;;;;;;;15.95;12.80;;;;;;;;;;4992112;28;20381;-64
2021/01/27 10:06:36;;;;;;;13.60;11.88;;;;;;;;;;4991687;28;20047;-65
2021/01/27 10:09:21;;;;;;;14.43;12.48;;;;;;;;;;4991813;28;20043;-65
2021/01/27 10:12:13;;;;;;;14.10;12.32;;;;;;;;;;4991855;28;20403;-64
2021/01/27 10:15:06;;;;;;;14.00;12.60;;;;;;;;;;4999076;28;20432;-64
2021/01/27 10:17:53;;;;;;;13.40;11.73;;;;;;;;;;4992630;28;20050;-64
2021/01/27 10:20:39;;;;;;;13.10;11.75;;;;;;;;;;4991447;28;20500;-64
2021/01/27 10:23:37;;;;;;;11.70;10.50;;;;;;;;;;4993062;28;20054;-64
2021/01/27 10:26:22;;;;;;;12.48;11.10;;;;;;;;;;4990661;28;20527;-64
2021/01/27 10:29:34;;;;;;;12.48;11.18;;;;;;;;;;4992930;28;20069;-64
2021/01/27 10:32:21;;;;;;;13.23;11.38;;;;;;;;;;4991839;28;20046;-64
2021/01/27 10:35:26;;;;;;;11.93;10.35;;;;;;;;;;4987563;28;20042;-64
2021/01/27 10:38:17;;;;;;;11.80;10.48;;;;;;;;;;4992330;28;20402;-64
2021/01/27 10:41:03;;;;;;;12.77;10.80;;;;;;;;;;4998490;28;20042;-64
2021/01/27 10:43:49;;;;;;;11.77;10.32;;;;;;;;;;4993238;28;20046;-64
2021/01/27 10:46:35;;;;;;;12.02;10.73;;;;;;;;;;4991892;28;20046;-64
2021/01/27 10:49:20;;;;;;;12.43;11.10;;;;;;;;;;4991489;28;20412;-64
2021/01/27 10:52:06;;;;;;;11.68;10.40;;;;;;;;;;5010541;28;20077;-64
2021/01/27 10:54:59;;;;;;;11.50;10.30;;;;;;;;;;5011047;28;20034;-65
2021/01/27 10:57:44;;;;;;;12.85;11.43;;;;;;;;;;5024461;28;20419;-64
2021/01/27 11:00:29;;;;;;;12.63;10.57;;;;;;;;;;5008712;28;20042;-65
2021/01/27 11:03:17;;;;;;;12.02;10.45;;;;;;;;;;4992046;28;20046;-65
2021/01/27 11:06:03;;;;;;;13.93;11.30;;;;;;;;;;4992288;28;20054;-65
2021/01/27 11:08:50;;;;;;;14.93;12.50;;;;;;;;;;4991082;28;20050;-65
2021/01/27 11:11:36;;;;;;;12.80;10.77;;;;;;;;;;5000467;28;20046;-65
2021/01/27 11:14:22;;;;;;;14.40;11.35;;;;;;;;;;5011804;28;20151;-65
2021/01/27 11:17:07;;;;;;;14.05;12.00;;;;;;;;;;4994574;28;20050;-65
2021/01/27 11:19:52;;;;;;;15.65;12.80;;;;;;;;;;4992136;28;20046;-65
2021/01/27 11:22:38;;;;;;;15.77;12.38;;;;;;;;;;5007240;28;20041;-65
2021/01/27 11:25:24;;;;;;;17.13;11.85;;;;;;;;;;5003359;28;20562;-65
2021/01/27 11:28:09;;;;;;;14.35;11.18;;;;;;;;;;4995233;28;20562;-65
2021/01/27 11:30:55;;;;;;;14.25;11.40;;;;;;;;;;4995529;28;20054;-66
2021/01/27 11:33:40;;;;;;;13.88;11.65;;;;;;;;;;4996671;28;20042;-66
2021/01/27 11:36:26;;;;;;;14.77;11.95;;;;;;;;;;4995162;28;20090;-66
2021/01/27 11:39:11;;;;;;;16.17;12.48;;;;;;;;;;4995468;28;20046;-64
2021/01/27 11:41:56;;;;;;;14.48;11.50;;;;;;;;;;4997501;28;20057;-64
2021/01/27 11:44:42;;;;;;;15.00;12.50;;;;;;;;;;5015234;28;20053;-65
2021/01/27 11:47:27;;;;;;;15.48;12.60;;;;;;;;;;5014686;28;20045;-65
2021/01/27 11:50:13;;;;;;;15.63;13.45;;;;;;;;;;5014902;28;20046;-65
2021/01/27 11:52:58;;;;;;;19.52;12.45;;;;;;;;;;5007111;28;20125;-65
2021/01/27 11:55:44;;;;;;;16.23;12.82;;;;;;;;;;4995103;28;20042;-65
2021/01/27 11:58:30;;;;;;;20.33;15.10;;;;;;;;;;4994944;28;20050;-65
2021/01/27 12:01:15;;;;;;;19.17;14.38;;;;;;;;;;4994977;28;20050;-65
2021/01/27 12:04:00;;;;;;;17.45;13.55;;;;;;;;;;5005878;28;20042;-65
2021/01/27 12:06:45;;;;;;;21.35;13.82;;;;;;;;;;5014518;28;20073;-64
2021/01/27 12:09:31;;;;;;;18.77;14.50;;;;;;;;;;5050491;23;20042;-66
2021/01/27 12:12:17;;;;;;;18.13;14.57;;;;;;;;;;4992834;28;20046;-66
2021/01/27 12:15:02;;;;;;;18.15;13.68;;;;;;;;;;4993153;28;20042;-66
2021/01/27 12:17:49;;;;;;;18.63;14.18;;;;;;;;;;4985620;28;20078;-66
2021/01/27 12:20:35;;;;;;;18.90;14.10;;;;;;;;;;4991492;28;20492;-66
2021/01/27 12:23:21;;;;;;;18.40;14.82;;;;;;;;;;4983874;28;20142;-66
2021/01/27 12:26:06;;;;;;;16.65;13.30;;;;;;;;;;4974818;28;20057;-65
2021/01/27 12:28:51;;;;;;;21.92;15.18;;;;;;;;;;4974309;28;20185;-66
2021/01/27 12:31:36;;;;;;;18.60;13.60;;;;;;;;;;4974828;28;20046;-66
2021/01/27 12:34:22;;;;;;;19.42;14.70;;;;;;;;;;4974399;28;20409;-66
2021/01/27 12:37:07;;;;;;;20.02;15.25;;;;;;;;;;4974601;28;20046;-66
2021/01/27 12:39:53;;;;;;;16.70;14.05;;;;;;;;;;4974832;28;20057;-66
2021/01/27 12:42:38;;;;;;;16.55;14.30;;;;;;;;;;4974280;28;20046;-66
2021/01/27 12:45:24;;;;;;;17.98;14.02;;;;;;;;;;4974621;28;20046;-65
2021/01/27 12:48:09;;;;;;;18.08;13.63;;;;;;;;;;4973911;28;20039;-65
2021/01/27 12:50:54;;;;;;;18.35;14.63;;;;;;;;;;4955085;28;20419;-66
2021/01/27 12:53:40;;;;;;;17.73;14.23;;;;;;;;;;4954881;29;20048;-65
2021/01/27 12:56:26;;;;;;;19.83;15.23;;;;;;;;;;4969242;28;20461;-66
2021/01/27 12:59:11;;;;;;;18.73;14.48;;;;;;;;;;4979188;28;20050;-66
2021/01/27 13:01:56;;;;;;;21.77;15.48;;;;;;;;;;4983714;28;20046;-66
2021/01/27 13:04:42;;;;;;;20.80;15.25;;;;;;;;;;4981095;28;20039;-65
2021/01/27 13:07:27;;;;;;;23.48;16.70;;;;;;;;;;4982713;28;20047;-66
2021/01/27 13:10:12;;;;;;;23.48;16.85;;;;;;;;;;4982056;28;20046;-65
2021/01/27 13:12:59;;;;;;;23.85;17.15;;;;;;;;;;4987815;28;20512;-65
2021/01/27 13:15:44;;;;;;;28.95;18.88;;;;;;;;;;4989397;28;20070;-65
2021/01/27 13:18:29;;;;;;;29.80;19.08;;;;;;;;;;4973992;28;20047;-66
2021/01/27 13:21:15;;;;;;;29.95;19.48;;;;;;;;;;4973787;28;20529;-66
2021/01/27 13:24:00;;;;;;;33.00;20.20;;;;;;;;;;4973835;28;20043;-65
2021/01/27 13:26:46;;;;;;;36.05;21.73;;;;;;;;;;4973707;28;20469;-66
2021/01/27 13:29:31;;;;;;;33.10;20.90;;;;;;;;;;4974027;28;20556;-65
2021/01/27 13:32:16;;;;;;;35.42;21.98;;;;;;;;;;4974521;28;20050;-66
2021/01/27 13:35:02;;;;;;;36.63;22.27;;;;;;;;;;4973854;28;20042;-66
2021/01/27 13:37:47;;;;;;;40.67;23.25;;;;;;;;;;4973782;28;20046;-65
2021/01/27 13:40:32;;;;;;;35.25;22.35;;;;;;;;;;4972659;28;20145;-66
2021/01/27 13:43:18;;;;;;;44.08;23.25;;;;;;;;;;4973309;28;20117;-66
2021/01/27 13:46:04;;;;;;;48.55;24.80;;;;;;;;;;4972845;28;20054;-65
2021/01/27 13:48:49;;;;;;;46.95;25.08;;;;;;;;;;4973164;28;20481;-66
2021/01/27 13:51:34;;;;;;;43.47;24.17;;;;;;;;;;4973570;28;20117;-66
2021/01/27 13:54:20;;;;;;;40.53;23.60;;;;;;;;;;4973378;28;20635;-66
2021/01/27 13:57:06;;;;;;;40.95;24.88;;;;;;;;;;4973099;28;20043;-66
2021/01/27 13:59:51;;;;;;;48.85;26.48;;;;;;;;;;4973267;28;20074;-66
2021/01/27 14:02:36;;;;;;;47.65;26.02;;;;;;;;;;4973246;28;20042;-66
2021/01/27 14:05:23;;;;;;;51.30;26.35;;;;;;;;;;4973347;28;20710;-65
2021/01/27 14:08:08;;;;;;;47.17;26.92;;;;;;;;;;4973047;28;20517;-66
2021/01/27 14:10:54;;;;;;;43.90;25.83;;;;;;;;;;4972647;28;20050;-65
2021/01/27 14:13:39;;;;;;;49.22;25.77;;;;;;;;;;4972479;28;20121;-66
2021/01/27 14:16:25;;;;;;;52.22;27.25;;;;;;;;;;4978301;28;20126;-66
2021/01/27 14:19:10;;;;;;;51.80;27.20;;;;;;;;;;4981968;28;20485;-66
2021/01/27 14:21:55;;;;;;;48.63;26.52;;;;;;;;;;4979447;28;20051;-66
2021/01/27 14:24:43;;;;;;;40.85;26.05;;;;;;;;;;4977841;28;20043;-66
2021/01/27 14:27:28;;;;;;;37.30;23.23;;;;;;;;;;4977486;28;20416;-66
2021/01/27 14:30:15;;;;;;;46.42;24.67;;;;;;;;;;4976217;28;20050;-66
2021/01/27 14:33:00;;;;;;;41.20;23.60;;;;;;;;;;4972483;28;20048;-66
2021/01/27 14:35:47;;;;;;;39.38;22.52;;;;;;;;;;4971788;28;20059;-66
2021/01/27 14:38:32;;;;;;;37.65;23.08;;;;;;;;;;4972724;28;20094;-66
2021/01/27 14:41:17;;;;;;;35.47;21.75;;;;;;;;;;4971793;28;20047;-66
2021/01/27 14:44:02;;;;;;;43.70;23.88;;;;;;;;;;4972542;28;20043;-66
2021/01/27 14:46:48;;;;;;;42.03;23.08;;;;;;;;;;4973110;28;20047;-65
2021/01/27 14:49:33;;;;;;;33.03;19.92;;;;;;;;;;4972726;28;20042;-66
2021/01/27 14:52:18;;;;;;;31.58;18.48;;;;;;;;;;4972521;28;20121;-66
2021/01/27 14:55:04;;;;;;;40.20;19.20;;;;;;;;;;4972906;28;20039;-66
2021/01/27 14:57:50;;;;;;;27.13;16.55;;;;;;;;;;4975520;28;20042;-66
2021/01/27 15:00:35;;;;;;;22.98;16.02;;;;;;;;;;4976474;28;20046;-66
2021/01/27 15:03:22;;;;;;;23.13;14.38;;;;;;;;;;4976614;28;20047;-66
2021/01/27 15:06:08;;;;;;;20.75;14.50;;;;;;;;;;4976220;28;20501;-66
2021/01/27 15:08:53;;;;;;;25.50;16.20;;;;;;;;;;4976341;28;20047;-66
2021/01/27 15:11:38;;;;;;;27.77;16.48;;;;;;;;;;4975182;28;20460;-66
2021/01/27 15:14:23;;;;;;;22.42;15.48;;;;;;;;;;4976289;28;20051;-66
2021/01/27 15:17:08;;;;;;;24.17;14.73;;;;;;;;;;4974605;28;20497;-66
2021/01/27 15:19:53;;;;;;;25.42;16.33;;;;;;;;;;4976152;28;20043;-66
2021/01/27 15:22:39;;;;;;;23.90;14.63;;;;;;;;;;4976209;28;20055;-66
2021/01/27 15:25:24;;;;;;;23.80;15.90;;;;;;;;;;4975810;28;20043;-66
2021/01/27 15:28:09;;;;;;;26.58;16.55;;;;;;;;;;4976022;28;20125;-66
2021/01/27 15:30:55;;;;;;;30.67;17.20;;;;;;;;;;4975895;28;20506;-66
2021/01/27 15:33:40;;;;;;;26.38;16.48;;;;;;;;;;4975844;28;20070;-66
2021/01/27 15:36:26;;;;;;;34.00;17.70;;;;;;;;;;4975189;28;20051;-66
2021/01/27 15:39:11;;;;;;;30.60;17.20;;;;;;;;;;4975842;28;20452;-66
2021/01/27 15:41:56;;;;;;;29.10;17.67;;;;;;;;;;4974796;28;20117;-65
2021/01/27 15:44:44;;;;;;;26.15;16.63;;;;;;;;;;4975669;28;20081;-65
2021/01/27 15:47:29;;;;;;;35.75;17.85;;;;;;;;;;4975750;28;20047;-65
2021/01/27 15:50:14;;;;;;;30.20;17.45;;;;;;;;;;4975353;28;20493;-65
2021/01/27 15:53:00;;;;;;;36.53;17.90;;;;;;;;;;4975584;28;20046;-64
2021/01/27 15:55:46;;;;;;;34.35;18.45;;;;;;;;;;4974598;28;20042;-65
2021/01/27 15:58:32;;;;;;;34.88;17.40;;;;;;;;;;4967369;28;20505;-65
2021/01/27 16:01:17;;;;;;;28.58;16.08;;;;;;;;;;4980525;28;20054;-65
2021/01/27 16:04:04;;;;;;;31.58;17.50;;;;;;;;;;4968348;28;20050;-65
2021/01/27 16:06:50;;;;;;;36.03;18.17;;;;;;;;;;4971713;28;20117;-65
2021/01/27 16:09:35;;;;;;;35.40;18.88;;;;;;;;;;4984341;28;20043;-65
2021/01/27 16:12:20;;;;;;;35.75;17.48;;;;;;;;;;4984705;28;20078;-65
2021/01/27 16:15:06;;;;;;;36.70;17.27;;;;;;;;;;4973211;28;20039;-65
2021/01/27 16:17:51;;;;;;;39.97;17.13;;;;;;;;;;4973223;28;20043;-65